sensor_id;sensor_type;location;lat;lon;timestamp;temperature;humidity
22145;DHT22;11238;48.730;11.566;2024-03-08T00:02:03;1.80;99.90
22145;DHT22;11238;48.730;11.566;2024-03-08T00:04:29;1.80;99.90
22145;DHT22;11238;48.730;11.566;2024-03-08T00:06:55;1.70;99.90
22145;DHT22;11238;48.730;11.566;2024-03-08T00:09:21;1.70;99.90
22145;DHT22;11238;48.730;11.566;2024-03-08T00:11:47;1.70;99.90
22145;DHT22;11238;48.730;11.566;2024-03-08T00:14:16;1.60;99.90
22145;DHT22;11238;48.730;11.566;2024-03-08T00:16:42;1.60;99.90
22145;DHT22;11238;48.730;11.566;2024-03-08T00:19:09;1.60;99.90
22145;DHT22;11238;48.730;11.566;2024-03-08T00:21:35;1.50;99.90
22145;DHT22;11238;48.730;11.566;2024-03-08T00:24:01;1.50;99.90
22145;DHT22;11238;48.730;11.566;2024-03-08T00:26:27;1.50;99.90
22145;DHT22;11238;48.730;11.566;2024-03-08T00:28:54;1.50;99.90
22145;DHT22;11238;48.730;11.566;2024-03-08T00:31:19;1.40;99.90
22145;DHT22;11238;48.730;11.566;2024-03-08T00:33:46;1.40;99.90
22145;DHT22;11238;48.730;11.566;2024-03-08T00:36:11;1.40;99.90
22145;DHT22;11238;48.730;11.566;2024-03-08T00:38:37;1.30;99.90
22145;DHT22;11238;48.730;11.566;2024-03-08T00:41:03;1.30;99.90
22145;DHT22;11238;48.730;11.566;2024-03-08T00:43:29;1.30;99.90
22145;DHT22;11238;48.730;11.566;2024-03-08T00:45:58;1.30;99.90
22145;DHT22;11238;48.730;11.566;2024-03-08T00:48:24;1.30;99.90
22145;DHT22;11238;48.730;11.566;2024-03-08T00:50:49;1.30;99.90
22145;DHT22;11238;48.730;11.566;2024-03-08T00:53:15;1.30;99.90
22145;DHT22;11238;48.730;11.566;2024-03-08T00:55:42;1.30;99.90
22145;DHT22;11238;48.730;11.566;2024-03-08T00:58:08;1.30;99.90
22145;DHT22;11238;48.730;11.566;2024-03-08T01:00:34;1.20;99.90
22145;DHT22;11238;48.730;11.566;2024-03-08T01:03:00;1.20;99.90
22145;DHT22;11238;48.730;11.566;2024-03-08T01:05:26;1.20;99.90
22145;DHT22;11238;48.730;11.566;2024-03-08T01:07:52;1.10;99.90
22145;DHT22;11238;48.730;11.566;2024-03-08T01:10:18;1.10;99.90
22145;DHT22;11238;48.730;11.566;2024-03-08T01:12:44;1.10;99.90
22145;DHT22;11238;48.730;11.566;2024-03-08T01:15:11;1.10;99.90
22145;DHT22;11238;48.730;11.566;2024-03-08T01:17:37;1.10;99.90
22145;DHT22;11238;48.730;11.566;2024-03-08T01:20:04;1.10;99.90
22145;DHT22;11238;48.730;11.566;2024-03-08T01:22:30;1.00;99.90
22145;DHT22;11238;48.730;11.566;2024-03-08T01:24:57;1.00;99.90
22145;DHT22;11238;48.730;11.566;2024-03-08T01:27:23;1.00;99.90
22145;DHT22;11238;48.730;11.566;2024-03-08T01:29:50;1.00;99.90
22145;DHT22;11238;48.730;11.566;2024-03-08T01:32:16;1.00;99.90
22145;DHT22;11238;48.730;11.566;2024-03-08T01:34:44;1.00;99.90
22145;DHT22;11238;48.730;11.566;2024-03-08T01:37:11;1.00;99.90
22145;DHT22;11238;48.730;11.566;2024-03-08T01:39:36;0.90;99.90
22145;DHT22;11238;48.730;11.566;2024-03-08T01:42:02;0.90;99.90
22145;DHT22;11238;48.730;11.566;2024-03-08T01:44:28;0.90;99.90
22145;DHT22;11238;48.730;11.566;2024-03-08T01:46:54;0.90;99.90
22145;DHT22;11238;48.730;11.566;2024-03-08T01:49:21;0.90;99.90
22145;DHT22;11238;48.730;11.566;2024-03-08T01:51:51;0.90;99.90
22145;DHT22;11238;48.730;11.566;2024-03-08T01:54:18;0.90;99.90
22145;DHT22;11238;48.730;11.566;2024-03-08T01:56:45;0.90;99.90
22145;DHT22;11238;48.730;11.566;2024-03-08T01:59:12;0.90;99.90
22145;DHT22;11238;48.730;11.566;2024-03-08T02:01:40;0.90;99.90
22145;DHT22;11238;48.730;11.566;2024-03-08T02:04:06;0.90;99.90
22145;DHT22;11238;48.730;11.566;2024-03-08T02:06:33;0.90;99.90
22145;DHT22;11238;48.730;11.566;2024-03-08T02:08:59;0.90;99.90
22145;DHT22;11238;48.730;11.566;2024-03-08T02:11:25;0.90;99.90
22145;DHT22;11238;48.730;11.566;2024-03-08T02:13:51;0.80;99.90
22145;DHT22;11238;48.730;11.566;2024-03-08T02:16:21;0.80;99.90
22145;DHT22;11238;48.730;11.566;2024-03-08T02:18:48;0.80;99.90
22145;DHT22;11238;48.730;11.566;2024-03-08T02:21:16;0.80;99.90
22145;DHT22;11238;48.730;11.566;2024-03-08T02:23:44;0.80;99.90
22145;DHT22;11238;48.730;11.566;2024-03-08T02:26:09;0.80;99.90
22145;DHT22;11238;48.730;11.566;2024-03-08T02:28:36;0.80;99.90
22145;DHT22;11238;48.730;11.566;2024-03-08T02:31:02;0.80;99.90
22145;DHT22;11238;48.730;11.566;2024-03-08T02:33:28;0.80;99.90
22145;DHT22;11238;48.730;11.566;2024-03-08T02:35:58;0.70;99.90
22145;DHT22;11238;48.730;11.566;2024-03-08T02:38:24;0.70;99.90
22145;DHT22;11238;48.730;11.566;2024-03-08T02:40:51;0.70;99.90
22145;DHT22;11238;48.730;11.566;2024-03-08T02:43:18;0.70;99.90
22145;DHT22;11238;48.730;11.566;2024-03-08T02:45:44;0.70;99.90
22145;DHT22;11238;48.730;11.566;2024-03-08T02:48:11;0.70;99.90
22145;DHT22;11238;48.730;11.566;2024-03-08T02:50:37;0.70;99.90
22145;DHT22;11238;48.730;11.566;2024-03-08T02:53:03;0.70;99.90
22145;DHT22;11238;48.730;11.566;2024-03-08T02:55:30;0.70;99.90
22145;DHT22;11238;48.730;11.566;2024-03-08T02:57:56;0.70;99.90
22145;DHT22;11238;48.730;11.566;2024-03-08T03:00:23;0.70;99.90
22145;DHT22;11238;48.730;11.566;2024-03-08T03:02:49;0.70;99.90
22145;DHT22;11238;48.730;11.566;2024-03-08T03:05:23;0.70;99.90
22145;DHT22;11238;48.730;11.566;2024-03-08T03:07:52;0.70;99.90
22145;DHT22;11238;48.730;11.566;2024-03-08T03:10:19;0.60;99.90
22145;DHT22;11238;48.730;11.566;2024-03-08T03:12:45;0.70;99.90
22145;DHT22;11238;48.730;11.566;2024-03-08T03:15:12;0.60;99.90
22145;DHT22;11238;48.730;11.566;2024-03-08T03:17:38;0.60;99.90
22145;DHT22;11238;48.730;11.566;2024-03-08T03:20:09;0.60;99.90
22145;DHT22;11238;48.730;11.566;2024-03-08T03:22:39;0.60;99.90
22145;DHT22;11238;48.730;11.566;2024-03-08T03:25:07;0.60;99.90
22145;DHT22;11238;48.730;11.566;2024-03-08T03:27:35;0.60;99.90
22145;DHT22;11238;48.730;11.566;2024-03-08T03:30:01;0.60;99.90
22145;DHT22;11238;48.730;11.566;2024-03-08T03:32:47;0.60;99.90
22145;DHT22;11238;48.730;11.566;2024-03-08T03:35:19;0.60;99.90
22145;DHT22;11238;48.730;11.566;2024-03-08T03:37:46;0.60;99.90
22145;DHT22;11238;48.730;11.566;2024-03-08T03:40:29;0.60;99.90
22145;DHT22;11238;48.730;11.566;2024-03-08T03:42:56;0.60;99.90
22145;DHT22;11238;48.730;11.566;2024-03-08T03:45:25;0.60;99.90
22145;DHT22;11238;48.730;11.566;2024-03-08T03:47:51;0.60;99.90
22145;DHT22;11238;48.730;11.566;2024-03-08T03:50:21;0.60;99.90
22145;DHT22;11238;48.730;11.566;2024-03-08T03:52:48;0.50;99.90
22145;DHT22;11238;48.730;11.566;2024-03-08T03:55:14;0.50;99.90
22145;DHT22;11238;48.730;11.566;2024-03-08T03:57:41;0.50;99.90
22145;DHT22;11238;48.730;11.566;2024-03-08T04:00:07;0.50;99.90
22145;DHT22;11238;48.730;11.566;2024-03-08T04:02:40;0.50;99.90
22145;DHT22;11238;48.730;11.566;2024-03-08T04:05:09;0.50;99.90
22145;DHT22;11238;48.730;11.566;2024-03-08T04:07:37;0.40;99.90
22145;DHT22;11238;48.730;11.566;2024-03-08T04:10:04;0.40;99.90
22145;DHT22;11238;48.730;11.566;2024-03-08T04:12:32;0.40;99.90
22145;DHT22;11238;48.730;11.566;2024-03-08T04:14:58;0.40;99.90
22145;DHT22;11238;48.730;11.566;2024-03-08T04:17:24;0.30;99.90
22145;DHT22;11238;48.730;11.566;2024-03-08T04:19:50;0.30;99.90
22145;DHT22;11238;48.730;11.566;2024-03-08T04:22:16;0.30;99.90
22145;DHT22;11238;48.730;11.566;2024-03-08T04:24:44;0.30;99.90
22145;DHT22;11238;48.730;11.566;2024-03-08T04:27:09;0.30;99.90
22145;DHT22;11238;48.730;11.566;2024-03-08T04:29:35;0.30;99.90
22145;DHT22;11238;48.730;11.566;2024-03-08T04:32:03;0.40;99.90
22145;DHT22;11238;48.730;11.566;2024-03-08T04:34:30;0.40;99.90
22145;DHT22;11238;48.730;11.566;2024-03-08T04:36:59;0.40;99.90
22145;DHT22;11238;48.730;11.566;2024-03-08T04:39:25;0.40;99.90
22145;DHT22;11238;48.730;11.566;2024-03-08T04:41:55;0.50;99.90
22145;DHT22;11238;48.730;11.566;2024-03-08T04:44:23;0.50;99.90
22145;DHT22;11238;48.730;11.566;2024-03-08T04:46:50;0.60;99.90
22145;DHT22;11238;48.730;11.566;2024-03-08T04:49:16;0.60;99.90
22145;DHT22;11238;48.730;11.566;2024-03-08T04:51:42;0.70;99.90
22145;DHT22;11238;48.730;11.566;2024-03-08T04:54:08;0.70;99.90
22145;DHT22;11238;48.730;11.566;2024-03-08T04:56:34;0.70;99.90
22145;DHT22;11238;48.730;11.566;2024-03-08T04:59:00;0.80;99.90
22145;DHT22;11238;48.730;11.566;2024-03-08T05:01:26;0.80;99.90
22145;DHT22;11238;48.730;11.566;2024-03-08T05:03:52;0.80;99.90
22145;DHT22;11238;48.730;11.566;2024-03-08T05:06:21;0.80;99.90
22145;DHT22;11238;48.730;11.566;2024-03-08T05:08:47;0.80;99.90
22145;DHT22;11238;48.730;11.566;2024-03-08T05:11:13;0.90;99.90
22145;DHT22;11238;48.730;11.566;2024-03-08T05:13:41;0.90;99.90
22145;DHT22;11238;48.730;11.566;2024-03-08T05:16:07;0.90;99.90
22145;DHT22;11238;48.730;11.566;2024-03-08T05:18:34;0.90;99.90
22145;DHT22;11238;48.730;11.566;2024-03-08T05:21:01;0.90;99.90
22145;DHT22;11238;48.730;11.566;2024-03-08T05:23:30;1.00;99.90
22145;DHT22;11238;48.730;11.566;2024-03-08T05:25:56;1.00;99.90
22145;DHT22;11238;48.730;11.566;2024-03-08T05:28:23;1.00;99.90
22145;DHT22;11238;48.730;11.566;2024-03-08T05:30:49;1.00;99.90
22145;DHT22;11238;48.730;11.566;2024-03-08T05:33:15;1.10;99.90
22145;DHT22;11238;48.730;11.566;2024-03-08T05:35:41;1.10;99.90
22145;DHT22;11238;48.730;11.566;2024-03-08T05:38:07;1.10;99.90
22145;DHT22;11238;48.730;11.566;2024-03-08T05:40:33;1.10;99.90
22145;DHT22;11238;48.730;11.566;2024-03-08T05:42:59;1.00;99.90
22145;DHT22;11238;48.730;11.566;2024-03-08T05:45:25;1.10;99.90
22145;DHT22;11238;48.730;11.566;2024-03-08T05:47:52;1.00;99.90
22145;DHT22;11238;48.730;11.566;2024-03-08T05:50:18;0.90;99.90
22145;DHT22;11238;48.730;11.566;2024-03-08T05:52:45;0.80;99.90
22145;DHT22;11238;48.730;11.566;2024-03-08T05:55:11;0.80;99.90
22145;DHT22;11238;48.730;11.566;2024-03-08T05:57:40;0.80;99.90
22145;DHT22;11238;48.730;11.566;2024-03-08T06:00:06;0.80;99.90
22145;DHT22;11238;48.730;11.566;2024-03-08T06:02:38;0.80;99.90
22145;DHT22;11238;48.730;11.566;2024-03-08T06:05:11;0.80;99.90
22145;DHT22;11238;48.730;11.566;2024-03-08T06:07:37;0.70;99.90
22145;DHT22;11238;48.730;11.566;2024-03-08T06:10:10;0.80;99.90
22145;DHT22;11238;48.730;11.566;2024-03-08T06:12:36;0.80;99.90
22145;DHT22;11238;48.730;11.566;2024-03-08T06:15:09;0.80;99.90
22145;DHT22;11238;48.730;11.566;2024-03-08T06:17:36;0.80;99.90
22145;DHT22;11238;48.730;11.566;2024-03-08T06:20:02;0.80;99.90
22145;DHT22;11238;48.730;11.566;2024-03-08T06:22:29;0.90;99.90
22145;DHT22;11238;48.730;11.566;2024-03-08T06:24:56;0.80;99.90
22145;DHT22;11238;48.730;11.566;2024-03-08T06:27:22;0.80;99.90
22145;DHT22;11238;48.730;11.566;2024-03-08T06:29:48;0.80;99.90
22145;DHT22;11238;48.730;11.566;2024-03-08T06:32:15;0.80;99.90
22145;DHT22;11238;48.730;11.566;2024-03-08T06:34:41;0.90;99.90
22145;DHT22;11238;48.730;11.566;2024-03-08T06:37:06;0.90;99.90
22145;DHT22;11238;48.730;11.566;2024-03-08T06:39:33;0.90;99.90
22145;DHT22;11238;48.730;11.566;2024-03-08T06:42:01;0.90;99.90
22145;DHT22;11238;48.730;11.566;2024-03-08T06:44:27;0.90;99.90
22145;DHT22;11238;48.730;11.566;2024-03-08T06:46:53;0.90;99.90
22145;DHT22;11238;48.730;11.566;2024-03-08T06:49:19;0.90;99.90
22145;DHT22;11238;48.730;11.566;2024-03-08T06:51:45;1.00;99.90
22145;DHT22;11238;48.730;11.566;2024-03-08T06:54:11;1.00;99.90
22145;DHT22;11238;48.730;11.566;2024-03-08T06:56:36;1.00;99.90
22145;DHT22;11238;48.730;11.566;2024-03-08T06:59:02;1.10;99.90
22145;DHT22;11238;48.730;11.566;2024-03-08T07:01:29;1.10;99.90
22145;DHT22;11238;48.730;11.566;2024-03-08T07:03:57;1.20;99.90
22145;DHT22;11238;48.730;11.566;2024-03-08T07:06:24;1.20;99.90
22145;DHT22;11238;48.730;11.566;2024-03-08T07:08:50;1.30;99.90
22145;DHT22;11238;48.730;11.566;2024-03-08T07:11:16;1.30;99.90
22145;DHT22;11238;48.730;11.566;2024-03-08T07:13:47;1.40;99.90
22145;DHT22;11238;48.730;11.566;2024-03-08T07:16:13;1.40;99.90
22145;DHT22;11238;48.730;11.566;2024-03-08T07:18:39;1.40;99.90
22145;DHT22;11238;48.730;11.566;2024-03-08T07:21:12;1.50;99.90
22145;DHT22;11238;48.730;11.566;2024-03-08T07:23:38;1.50;99.90
22145;DHT22;11238;48.730;11.566;2024-03-08T07:26:22;1.60;99.90
22145;DHT22;11238;48.730;11.566;2024-03-08T07:28:48;1.70;99.90
22145;DHT22;11238;48.730;11.566;2024-03-08T07:31:14;1.70;99.90
22145;DHT22;11238;48.730;11.566;2024-03-08T07:33:40;1.80;99.90
22145;DHT22;11238;48.730;11.566;2024-03-08T07:36:06;1.90;99.90
22145;DHT22;11238;48.730;11.566;2024-03-08T07:38:32;1.90;99.90
22145;DHT22;11238;48.730;11.566;2024-03-08T07:40:58;2.00;99.90
22145;DHT22;11238;48.730;11.566;2024-03-08T07:43:24;2.20;99.90
22145;DHT22;11238;48.730;11.566;2024-03-08T07:45:50;2.30;99.90
22145;DHT22;11238;48.730;11.566;2024-03-08T07:48:18;2.40;99.90
22145;DHT22;11238;48.730;11.566;2024-03-08T07:50:46;2.50;99.90
22145;DHT22;11238;48.730;11.566;2024-03-08T07:53:12;2.60;99.90
22145;DHT22;11238;48.730;11.566;2024-03-08T07:55:38;2.70;99.90
22145;DHT22;11238;48.730;11.566;2024-03-08T07:58:07;2.70;99.90
22145;DHT22;11238;48.730;11.566;2024-03-08T08:00:36;2.80;99.90
22145;DHT22;11238;48.730;11.566;2024-03-08T08:03:03;2.90;99.90
22145;DHT22;11238;48.730;11.566;2024-03-08T08:05:29;2.90;99.90
22145;DHT22;11238;48.730;11.566;2024-03-08T08:07:55;3.00;99.90
22145;DHT22;11238;48.730;11.566;2024-03-08T08:10:21;3.10;99.90
22145;DHT22;11238;48.730;11.566;2024-03-08T08:12:48;3.20;99.90
22145;DHT22;11238;48.730;11.566;2024-03-08T08:15:14;3.20;99.90
22145;DHT22;11238;48.730;11.566;2024-03-08T08:17:44;3.30;99.90
22145;DHT22;11238;48.730;11.566;2024-03-08T08:20:11;3.30;99.90
22145;DHT22;11238;48.730;11.566;2024-03-08T08:22:42;3.40;99.90
22145;DHT22;11238;48.730;11.566;2024-03-08T08:25:10;3.30;99.90
22145;DHT22;11238;48.730;11.566;2024-03-08T08:27:41;3.40;99.90
22145;DHT22;11238;48.730;11.566;2024-03-08T08:30:10;3.50;99.90
22145;DHT22;11238;48.730;11.566;2024-03-08T08:32:38;3.50;99.90
22145;DHT22;11238;48.730;11.566;2024-03-08T08:35:14;3.60;99.90
22145;DHT22;11238;48.730;11.566;2024-03-08T08:37:40;3.60;99.90
22145;DHT22;11238;48.730;11.566;2024-03-08T08:40:07;3.70;99.90
22145;DHT22;11238;48.730;11.566;2024-03-08T08:42:40;3.80;99.90
22145;DHT22;11238;48.730;11.566;2024-03-08T08:45:07;3.90;99.90
22145;DHT22;11238;48.730;11.566;2024-03-08T08:47:36;4.00;99.90
22145;DHT22;11238;48.730;11.566;2024-03-08T08:50:02;4.10;99.90
22145;DHT22;11238;48.730;11.566;2024-03-08T08:52:33;4.20;99.90
22145;DHT22;11238;48.730;11.566;2024-03-08T08:55:00;4.30;99.90
22145;DHT22;11238;48.730;11.566;2024-03-08T08:57:26;4.40;99.90
22145;DHT22;11238;48.730;11.566;2024-03-08T08:59:53;4.50;99.90
22145;DHT22;11238;48.730;11.566;2024-03-08T09:02:19;4.60;99.90
22145;DHT22;11238;48.730;11.566;2024-03-08T09:04:47;4.70;99.90
22145;DHT22;11238;48.730;11.566;2024-03-08T09:07:14;4.70;99.90
22145;DHT22;11238;48.730;11.566;2024-03-08T09:09:41;4.80;99.90
22145;DHT22;11238;48.730;11.566;2024-03-08T09:12:07;4.90;99.90
22145;DHT22;11238;48.730;11.566;2024-03-08T09:14:33;4.90;99.90
22145;DHT22;11238;48.730;11.566;2024-03-08T09:17:00;5.00;99.90
22145;DHT22;11238;48.730;11.566;2024-03-08T09:19:26;5.10;99.90
22145;DHT22;11238;48.730;11.566;2024-03-08T09:21:52;5.30;99.90
22145;DHT22;11238;48.730;11.566;2024-03-08T09:24:18;5.50;99.90
22145;DHT22;11238;48.730;11.566;2024-03-08T09:26:44;5.60;99.90
22145;DHT22;11238;48.730;11.566;2024-03-08T09:29:09;5.60;99.90
22145;DHT22;11238;48.730;11.566;2024-03-08T09:31:36;5.70;99.90
22145;DHT22;11238;48.730;11.566;2024-03-08T09:34:03;5.90;99.90
22145;DHT22;11238;48.730;11.566;2024-03-08T09:36:29;6.00;99.90
22145;DHT22;11238;48.730;11.566;2024-03-08T09:38:55;6.10;99.90
22145;DHT22;11238;48.730;11.566;2024-03-08T09:41:21;6.10;99.90
22145;DHT22;11238;48.730;11.566;2024-03-08T09:43:47;6.30;99.90
22145;DHT22;11238;48.730;11.566;2024-03-08T09:46:14;6.40;99.90
22145;DHT22;11238;48.730;11.566;2024-03-08T09:48:40;6.50;99.90
22145;DHT22;11238;48.730;11.566;2024-03-08T09:51:07;6.70;99.90
22145;DHT22;11238;48.730;11.566;2024-03-08T09:53:35;6.90;99.90
22145;DHT22;11238;48.730;11.566;2024-03-08T09:56:00;7.00;99.90
22145;DHT22;11238;48.730;11.566;2024-03-08T09:58:29;7.20;99.90
22145;DHT22;11238;48.730;11.566;2024-03-08T10:01:01;7.30;99.90
22145;DHT22;11238;48.730;11.566;2024-03-08T10:03:32;7.40;99.90
22145;DHT22;11238;48.730;11.566;2024-03-08T10:05:59;7.50;99.90
22145;DHT22;11238;48.730;11.566;2024-03-08T10:08:29;7.60;99.90
22145;DHT22;11238;48.730;11.566;2024-03-08T10:10:56;7.80;99.90
22145;DHT22;11238;48.730;11.566;2024-03-08T10:13:25;7.80;99.90
22145;DHT22;11238;48.730;11.566;2024-03-08T10:15:53;7.90;99.90
22145;DHT22;11238;48.730;11.566;2024-03-08T10:18:20;8.00;99.90
22145;DHT22;11238;48.730;11.566;2024-03-08T10:20:47;8.10;99.90
22145;DHT22;11238;48.730;11.566;2024-03-08T10:23:29;8.20;99.90
22145;DHT22;11238;48.730;11.566;2024-03-08T10:25:55;8.20;98.70
22145;DHT22;11238;48.730;11.566;2024-03-08T10:28:24;8.40;99.50
22145;DHT22;11238;48.730;11.566;2024-03-08T10:30:50;8.50;98.20
22145;DHT22;11238;48.730;11.566;2024-03-08T10:33:16;8.60;97.70
22145;DHT22;11238;48.730;11.566;2024-03-08T10:35:44;8.70;98.00
22145;DHT22;11238;48.730;11.566;2024-03-08T10:38:11;8.80;97.70
22145;DHT22;11238;48.730;11.566;2024-03-08T10:40:40;8.90;96.00
22145;DHT22;11238;48.730;11.566;2024-03-08T10:43:15;8.90;94.80
22145;DHT22;11238;48.730;11.566;2024-03-08T10:45:47;8.90;95.60
22145;DHT22;11238;48.730;11.566;2024-03-08T10:48:19;9.10;96.00
22145;DHT22;11238;48.730;11.566;2024-03-08T10:50:49;9.20;96.00
22145;DHT22;11238;48.730;11.566;2024-03-08T10:53:18;9.30;94.90
22145;DHT22;11238;48.730;11.566;2024-03-08T10:55:44;9.50;94.70
22145;DHT22;11238;48.730;11.566;2024-03-08T10:58:11;9.60;94.20
22145;DHT22;11238;48.730;11.566;2024-03-08T11:00:37;9.70;93.50
22145;DHT22;11238;48.730;11.566;2024-03-08T11:03:04;9.90;93.00
22145;DHT22;11238;48.730;11.566;2024-03-08T11:05:37;9.90;92.70
22145;DHT22;11238;48.730;11.566;2024-03-08T11:08:24;9.80;91.90
22145;DHT22;11238;48.730;11.566;2024-03-08T11:10:52;9.90;91.80
22145;DHT22;11238;48.730;11.566;2024-03-08T11:13:35;10.10;92.20
22145;DHT22;11238;48.730;11.566;2024-03-08T11:16:09;10.10;91.50
22145;DHT22;11238;48.730;11.566;2024-03-08T11:18:35;10.20;91.90
22145;DHT22;11238;48.730;11.566;2024-03-08T11:21:12;10.40;90.20
22145;DHT22;11238;48.730;11.566;2024-03-08T11:23:38;10.50;90.60
22145;DHT22;11238;48.730;11.566;2024-03-08T11:26:20;10.60;90.30
22145;DHT22;11238;48.730;11.566;2024-03-08T11:28:46;10.80;91.30
22145;DHT22;11238;48.730;11.566;2024-03-08T11:33:40;11.10;86.90
22145;DHT22;11238;48.730;11.566;2024-03-08T11:36:23;11.20;86.90
22145;DHT22;11238;48.730;11.566;2024-03-08T11:38:50;11.20;82.70
22145;DHT22;11238;48.730;11.566;2024-03-08T11:41:19;11.00;87.30
22145;DHT22;11238;48.730;11.566;2024-03-08T11:43:46;11.20;85.40
22145;DHT22;11238;48.730;11.566;2024-03-08T11:46:14;11.20;85.60
22145;DHT22;11238;48.730;11.566;2024-03-08T11:48:41;11.40;85.50
22145;DHT22;11238;48.730;11.566;2024-03-08T11:51:14;11.70;84.40
22145;DHT22;11238;48.730;11.566;2024-03-08T11:53:41;11.70;84.20
22145;DHT22;11238;48.730;11.566;2024-03-08T11:56:11;11.80;81.90
22145;DHT22;11238;48.730;11.566;2024-03-08T11:58:37;11.80;80.80
22145;DHT22;11238;48.730;11.566;2024-03-08T12:01:08;12.00;83.80
22145;DHT22;11238;48.730;11.566;2024-03-08T12:03:43;12.10;79.10
22145;DHT22;11238;48.730;11.566;2024-03-08T12:06:12;12.10;77.90
22145;DHT22;11238;48.730;11.566;2024-03-08T12:08:41;12.20;78.20
22145;DHT22;11238;48.730;11.566;2024-03-08T12:11:07;12.30;77.80
22145;DHT22;11238;48.730;11.566;2024-03-08T12:13:35;12.40;78.40
22145;DHT22;11238;48.730;11.566;2024-03-08T12:16:03;12.50;77.90
22145;DHT22;11238;48.730;11.566;2024-03-08T12:18:37;12.40;77.10
22145;DHT22;11238;48.730;11.566;2024-03-08T12:21:08;12.40;76.80
22145;DHT22;11238;48.730;11.566;2024-03-08T12:23:34;12.60;79.10
22145;DHT22;11238;48.730;11.566;2024-03-08T12:26:14;12.60;75.50
22145;DHT22;11238;48.730;11.566;2024-03-08T12:28:42;12.50;74.50
22145;DHT22;11238;48.730;11.566;2024-03-08T12:31:12;12.70;73.50
22145;DHT22;11238;48.730;11.566;2024-03-08T12:33:50;12.70;73.70
22145;DHT22;11238;48.730;11.566;2024-03-08T12:36:17;12.90;73.80
22145;DHT22;11238;48.730;11.566;2024-03-08T12:38:47;13.20;73.50
22145;DHT22;11238;48.730;11.566;2024-03-08T12:41:17;13.30;72.80
22145;DHT22;11238;48.730;11.566;2024-03-08T12:43:47;12.90;68.80
22145;DHT22;11238;48.730;11.566;2024-03-08T12:46:17;12.60;70.00
22145;DHT22;11238;48.730;11.566;2024-03-08T12:48:46;12.90;71.10
22145;DHT22;11238;48.730;11.566;2024-03-08T12:51:16;13.20;71.30
22145;DHT22;11238;48.730;11.566;2024-03-08T12:53:44;12.40;66.00
22145;DHT22;11238;48.730;11.566;2024-03-08T12:56:11;12.50;71.90
22145;DHT22;11238;48.730;11.566;2024-03-08T12:58:37;12.10;73.00
22145;DHT22;11238;48.730;11.566;2024-03-08T13:01:06;12.10;70.20
22145;DHT22;11238;48.730;11.566;2024-03-08T13:03:34;12.00;72.00
22145;DHT22;11238;48.730;11.566;2024-03-08T13:06:06;12.40;71.20
22145;DHT22;11238;48.730;11.566;2024-03-08T13:08:38;12.60;74.50
22145;DHT22;11238;48.730;11.566;2024-03-08T13:11:07;12.80;69.50
22145;DHT22;11238;48.730;11.566;2024-03-08T13:13:33;13.10;71.20
22145;DHT22;11238;48.730;11.566;2024-03-08T13:16:02;13.20;72.40
22145;DHT22;11238;48.730;11.566;2024-03-08T13:18:28;13.20;67.90
22145;DHT22;11238;48.730;11.566;2024-03-08T13:20:55;13.20;70.90
22145;DHT22;11238;48.730;11.566;2024-03-08T13:23:21;13.60;71.70
22145;DHT22;11238;48.730;11.566;2024-03-08T13:25:47;13.80;70.90
22145;DHT22;11238;48.730;11.566;2024-03-08T13:28:13;13.70;68.10
22145;DHT22;11238;48.730;11.566;2024-03-08T13:30:39;13.80;68.00
22145;DHT22;11238;48.730;11.566;2024-03-08T13:33:05;13.80;68.20
22145;DHT22;11238;48.730;11.566;2024-03-08T13:35:32;13.90;69.30
22145;DHT22;11238;48.730;11.566;2024-03-08T13:37:58;14.10;67.60
22145;DHT22;11238;48.730;11.566;2024-03-08T13:40:24;14.00;67.70
22145;DHT22;11238;48.730;11.566;2024-03-08T13:42:51;14.00;66.40
22145;DHT22;11238;48.730;11.566;2024-03-08T13:45:17;14.00;67.30
22145;DHT22;11238;48.730;11.566;2024-03-08T13:47:48;13.90;65.90
22145;DHT22;11238;48.730;11.566;2024-03-08T13:50:17;14.20;66.40
22145;DHT22;11238;48.730;11.566;2024-03-08T13:52:48;14.20;67.20
22145;DHT22;11238;48.730;11.566;2024-03-08T13:55:23;14.20;65.10
22145;DHT22;11238;48.730;11.566;2024-03-08T13:57:52;14.20;62.50
22145;DHT22;11238;48.730;11.566;2024-03-08T14:00:18;14.20;66.30
22145;DHT22;11238;48.730;11.566;2024-03-08T14:02:48;14.30;66.70
22145;DHT22;11238;48.730;11.566;2024-03-08T14:05:14;14.50;68.20
22145;DHT22;11238;48.730;11.566;2024-03-08T14:07:41;14.00;63.70
22145;DHT22;11238;48.730;11.566;2024-03-08T14:10:07;14.10;65.40
22145;DHT22;11238;48.730;11.566;2024-03-08T14:12:35;14.00;64.00
22145;DHT22;11238;48.730;11.566;2024-03-08T14:15:01;14.10;66.00
22145;DHT22;11238;48.730;11.566;2024-03-08T14:17:29;14.20;67.20
22145;DHT22;11238;48.730;11.566;2024-03-08T14:19:56;14.10;64.20
22145;DHT22;11238;48.730;11.566;2024-03-08T14:22:22;14.30;66.20
22145;DHT22;11238;48.730;11.566;2024-03-08T14:24:49;14.20;64.60
22145;DHT22;11238;48.730;11.566;2024-03-08T14:27:16;14.40;67.20
22145;DHT22;11238;48.730;11.566;2024-03-08T14:29:44;14.60;66.10
22145;DHT22;11238;48.730;11.566;2024-03-08T14:32:10;14.70;63.20
22145;DHT22;11238;48.730;11.566;2024-03-08T14:34:36;14.70;62.00
22145;DHT22;11238;48.730;11.566;2024-03-08T14:37:02;14.70;63.80
22145;DHT22;11238;48.730;11.566;2024-03-08T14:39:31;14.80;62.80
22145;DHT22;11238;48.730;11.566;2024-03-08T14:41:59;14.70;59.60
22145;DHT22;11238;48.730;11.566;2024-03-08T14:44:26;14.70;61.60
22145;DHT22;11238;48.730;11.566;2024-03-08T14:46:52;14.60;62.10
22145;DHT22;11238;48.730;11.566;2024-03-08T14:49:18;14.60;62.40
22145;DHT22;11238;48.730;11.566;2024-03-08T14:51:45;14.50;61.80
22145;DHT22;11238;48.730;11.566;2024-03-08T14:54:11;14.40;61.60
22145;DHT22;11238;48.730;11.566;2024-03-08T14:56:37;14.30;62.80
22145;DHT22;11238;48.730;11.566;2024-03-08T14:59:03;14.30;62.40
22145;DHT22;11238;48.730;11.566;2024-03-08T15:01:30;14.20;63.80
22145;DHT22;11238;48.730;11.566;2024-03-08T15:03:59;14.20;62.30
22145;DHT22;11238;48.730;11.566;2024-03-08T15:06:32;14.40;62.40
22145;DHT22;11238;48.730;11.566;2024-03-08T15:08:58;14.10;60.30
22145;DHT22;11238;48.730;11.566;2024-03-08T15:11:24;14.30;60.20
22145;DHT22;11238;48.730;11.566;2024-03-08T15:13:51;14.20;60.10
22145;DHT22;11238;48.730;11.566;2024-03-08T15:16:19;14.10;60.60
22145;DHT22;11238;48.730;11.566;2024-03-08T15:18:47;13.90;59.50
22145;DHT22;11238;48.730;11.566;2024-03-08T15:21:14;13.60;58.40
22145;DHT22;11238;48.730;11.566;2024-03-08T15:23:46;13.40;58.50
22145;DHT22;11238;48.730;11.566;2024-03-08T15:26:18;13.30;58.40
22145;DHT22;11238;48.730;11.566;2024-03-08T15:28:44;13.20;59.20
22145;DHT22;11238;48.730;11.566;2024-03-08T15:31:12;13.00;59.40
22145;DHT22;11238;48.730;11.566;2024-03-08T15:33:39;12.80;60.20